sensor_id;sensor_type;location;lat;lon;timestamp;pressure;altitude;pressure_sealevel;temperature;humidity
31761;BME280;18335;51.486;7.562;2023-02-20T00:00:21;101185.41;;;5.65;100.00
31761;BME280;18335;51.486;7.562;2023-02-20T00:02:49;101187.28;;;5.39;100.00
31761;BME280;18335;51.486;7.562;2023-02-20T00:05:16;101187.50;;;5.49;100.00
31761;BME280;18335;51.486;7.562;2023-02-20T00:07:43;101186.94;;;5.56;100.00
31761;BME280;18335;51.486;7.562;2023-02-20T00:10:10;101179.91;;;5.41;100.00
31761;BME280;18335;51.486;7.562;2023-02-20T00:12:38;101177.00;;;5.44;100.00
31761;BME280;18335;51.486;7.562;2023-02-20T00:15:06;101175.28;;;5.43;100.00
31761;BME280;18335;51.486;7.562;2023-02-20T00:17:33;101173.13;;;5.36;100.00
31761;BME280;18335;51.486;7.562;2023-02-20T00:20:00;101159.06;;;5.43;100.00
31761;BME280;18335;51.486;7.562;2023-02-20T00:22:27;101157.81;;;5.47;100.00
31761;BME280;18335;51.486;7.562;2023-02-20T00:24:53;101146.34;;;5.44;100.00
31761;BME280;18335;51.486;7.562;2023-02-20T00:27:20;101144.28;;;5.47;100.00
31761;BME280;18335;51.486;7.562;2023-02-20T00:29:49;101134.47;;;5.46;100.00
31761;BME280;18335;51.486;7.562;2023-02-20T00:32:17;101142.25;;;5.51;100.00
31761;BME280;18335;51.486;7.562;2023-02-20T00:34:44;101137.91;;;5.48;100.00
31761;BME280;18335;51.486;7.562;2023-02-20T00:37:12;101130.75;;;5.47;100.00
31761;BME280;18335;51.486;7.562;2023-02-20T00:39:38;101137.91;;;5.48;100.00
31761;BME280;18335;51.486;7.562;2023-02-20T00:42:05;101132.50;;;5.48;100.00
31761;BME280;18335;51.486;7.562;2023-02-20T00:44:32;101132.72;;;5.45;100.00
31761;BME280;18335;51.486;7.562;2023-02-20T00:47:00;101126.44;;;5.45;100.00
31761;BME280;18335;51.486;7.562;2023-02-20T00:49:27;101124.16;;;5.51;100.00
31761;BME280;18335;51.486;7.562;2023-02-20T00:52:06;101125.47;;;5.46;100.00
31761;BME280;18335;51.486;7.562;2023-02-20T00:54:34;101112.59;;;5.49;100.00
31761;BME280;18335;51.486;7.562;2023-02-20T00:57:00;101114.94;;;5.54;100.00
31761;BME280;18335;51.486;7.562;2023-02-20T00:59:27;101117.66;;;5.54;100.00
31761;BME280;18335;51.486;7.562;2023-02-20T01:01:54;101111.16;;;5.56;100.00
31761;BME280;18335;51.486;7.562;2023-02-20T01:04:22;101107.63;;;5.43;100.00
31761;BME280;18335;51.486;7.562;2023-02-20T01:06:49;101103.69;;;5.47;100.00
31761;BME280;18335;51.486;7.562;2023-02-20T01:09:16;101100.91;;;5.49;100.00
31761;BME280;18335;51.486;7.562;2023-02-20T01:11:43;101101.75;;;5.49;100.00
31761;BME280;18335;51.486;7.562;2023-02-20T01:14:10;101097.84;;;5.53;100.00
31761;BME280;18335;51.486;7.562;2023-02-20T01:16:43;101083.44;;;5.53;100.00
31761;BME280;18335;51.486;7.562;2023-02-20T01:19:10;101072.72;;;5.51;100.00
31761;BME280;18335;51.486;7.562;2023-02-20T01:21:38;101056.50;;;5.51;100.00
31761;BME280;18335;51.486;7.562;2023-02-20T01:24:05;101069.06;;;5.52;100.00
31761;BME280;18335;51.486;7.562;2023-02-20T01:26:32;101072.72;;;5.51;100.00
31761;BME280;18335;51.486;7.562;2023-02-20T01:29:00;101075.84;;;5.58;100.00
31761;BME280;18335;51.486;7.562;2023-02-20T01:31:29;101077.69;;;5.57;100.00
31761;BME280;18335;51.486;7.562;2023-02-20T01:33:56;101076.19;;;5.53;100.00
31761;BME280;18335;51.486;7.562;2023-02-20T01:36:23;101068.34;;;5.62;100.00
31761;BME280;18335;51.486;7.562;2023-02-20T01:38:53;101062.19;;;5.59;100.00
31761;BME280;18335;51.486;7.562;2023-02-20T01:41:20;101062.47;;;5.68;100.00
31761;BME280;18335;51.486;7.562;2023-02-20T01:43:49;101057.94;;;5.68;100.00
31761;BME280;18335;51.486;7.562;2023-02-20T01:46:43;101058.94;;;5.67;100.00
31761;BME280;18335;51.486;7.562;2023-02-20T01:49:13;101066.22;;;5.78;100.00
31761;BME280;18335;51.486;7.562;2023-02-20T01:51:44;101062.03;;;5.74;100.00
31761;BME280;18335;51.486;7.562;2023-02-20T01:54:17;101059.22;;;5.75;100.00
31761;BME280;18335;51.486;7.562;2023-02-20T01:56:47;101054.22;;;5.82;100.00
31761;BME280;18335;51.486;7.562;2023-02-20T01:59:15;101054.44;;;5.79;100.00
31761;BME280;18335;51.486;7.562;2023-02-20T02:01:44;101042.59;;;5.80;100.00
31761;BME280;18335;51.486;7.562;2023-02-20T02:04:11;101039.06;;;5.79;100.00
31761;BME280;18335;51.486;7.562;2023-02-20T02:06:41;101040.53;;;5.83;100.00
31761;BME280;18335;51.486;7.562;2023-02-20T02:09:20;101036.97;;;5.83;100.00
31761;BME280;18335;51.486;7.562;2023-02-20T02:11:49;101035.91;;;5.85;100.00
31761;BME280;18335;51.486;7.562;2023-02-20T02:14:17;101030.38;;;5.87;100.00
31761;BME280;18335;51.486;7.562;2023-02-20T02:16:53;101017.56;;;5.89;100.00
31761;BME280;18335;51.486;7.562;2023-02-20T02:19:41;101003.69;;;5.93;100.00
31761;BME280;18335;51.486;7.562;2023-02-20T02:22:36;101013.66;;;5.93;100.00
31761;BME280;18335;51.486;7.562;2023-02-20T02:25:20;100993.97;;;5.91;100.00
31761;BME280;18335;51.486;7.562;2023-02-20T02:31:40;100990.88;;;5.95;100.00
31761;BME280;18335;51.486;7.562;2023-02-20T02:34:43;100974.41;;;5.98;100.00
31761;BME280;18335;51.486;7.562;2023-02-20T02:37:18;100964.03;;;5.92;100.00
31761;BME280;18335;51.486;7.562;2023-02-20T02:39:55;100963.16;;;5.92;100.00
31761;BME280;18335;51.486;7.562;2023-02-20T02:42:28;100954.00;;;5.82;100.00
31761;BME280;18335;51.486;7.562;2023-02-20T02:45:03;100953.88;;;5.83;100.00
31761;BME280;18335;51.486;7.562;2023-02-20T02:47:36;100958.22;;;5.86;100.00
31761;BME280;18335;51.486;7.562;2023-02-20T02:50:11;100948.34;;;5.85;100.00
31761;BME280;18335;51.486;7.562;2023-02-20T02:52:40;100949.56;;;5.81;100.00
31761;BME280;18335;51.486;7.562;2023-02-20T02:55:16;100959.75;;;5.77;100.00
31761;BME280;18335;51.486;7.562;2023-02-20T02:57:43;100955.94;;;5.80;100.00
31761;BME280;18335;51.486;7.562;2023-02-20T03:00:12;100946.13;;;5.79;100.00
31761;BME280;18335;51.486;7.562;2023-02-20T03:02:43;100943.91;;;5.84;100.00
31761;BME280;18335;51.486;7.562;2023-02-20T03:05:14;100947.00;;;5.79;100.00
31761;BME280;18335;51.486;7.562;2023-02-20T03:07:47;100945.13;;;5.80;100.00
31761;BME280;18335;51.486;7.562;2023-02-20T03:10:19;100938.72;;;5.81;100.00
31761;BME280;18335;51.486;7.562;2023-02-20T03:13:00;100949.31;;;5.84;100.00
31761;BME280;18335;51.486;7.562;2023-02-20T03:15:30;100925.31;;;5.79;100.00
31761;BME280;18335;51.486;7.562;2023-02-20T03:18:12;100933.94;;;5.84;100.00
31761;BME280;18335;51.486;7.562;2023-02-20T03:20:44;100917.81;;;5.83;100.00
31761;BME280;18335;51.486;7.562;2023-02-20T03:23:17;100927.41;;;5.76;100.00
31761;BME280;18335;51.486;7.562;2023-02-20T03:25:49;100919.03;;;5.79;100.00
31761;BME280;18335;51.486;7.562;2023-02-20T03:28:22;100921.63;;;5.80;100.00
31761;BME280;18335;51.486;7.562;2023-02-20T03:30:53;100916.19;;;5.80;100.00
31761;BME280;18335;51.486;7.562;2023-02-20T03:33:24;100920.00;;;5.78;100.00
31761;BME280;18335;51.486;7.562;2023-02-20T03:36:14;100924.47;;;5.79;100.00
31761;BME280;18335;51.486;7.562;2023-02-20T03:39:06;100921.22;;;5.74;100.00
31761;BME280;18335;51.486;7.562;2023-02-20T03:41:52;100912.38;;;5.72;100.00
31761;BME280;18335;51.486;7.562;2023-02-20T03:44:44;100906.31;;;5.68;100.00
31761;BME280;18335;51.486;7.562;2023-02-20T03:47:13;100906.84;;;5.73;100.00
31761;BME280;18335;51.486;7.562;2023-02-20T03:49:44;100911.72;;;5.68;100.00
31761;BME280;18335;51.486;7.562;2023-02-20T03:52:15;100909.56;;;5.73;100.00
31761;BME280;18335;51.486;7.562;2023-02-20T03:54:44;100911.25;;;5.74;100.00
31761;BME280;18335;51.486;7.562;2023-02-20T03:57:13;100910.91;;;5.79;100.00
31761;BME280;18335;51.486;7.562;2023-02-20T03:59:47;100909.31;;;5.76;100.00
31761;BME280;18335;51.486;7.562;2023-02-20T04:02:19;100910.91;;;5.79;100.00
31761;BME280;18335;51.486;7.562;2023-02-20T04:04:50;100906.00;;;5.84;100.00
31761;BME280;18335;51.486;7.562;2023-02-20T04:07:21;100899.47;;;5.75;100.00
31761;BME280;18335;51.486;7.562;2023-02-20T04:09:51;100913.09;;;5.74;100.00
31761;BME280;18335;51.486;7.562;2023-02-20T04:12:24;100901.53;;;5.72;100.00
31761;BME280;18335;51.486;7.562;2023-02-20T04:14:53;100904.97;;;5.74;100.00
31761;BME280;18335;51.486;7.562;2023-02-20T04:17:23;100913.09;;;5.74;100.00
31761;BME280;18335;51.486;7.562;2023-02-20T04:19:52;100922.38;;;5.82;100.00
31761;BME280;18335;51.486;7.562;2023-02-20T04:22:23;100907.69;;;5.74;100.00
31761;BME280;18335;51.486;7.562;2023-02-20T04:24:55;100913.34;;;5.71;100.00
31761;BME280;18335;51.486;7.562;2023-02-20T04:27:26;100913.34;;;5.71;100.00
31761;BME280;18335;51.486;7.562;2023-02-20T04:29:55;100917.31;;;5.78;100.00
31761;BME280;18335;51.486;7.562;2023-02-20T04:32:23;100913.47;;;5.69;100.00
31761;BME280;18335;51.486;7.562;2023-02-20T04:34:51;100915.22;;;5.70;100.00
31761;BME280;18335;51.486;7.562;2023-02-20T04:37:18;100894.34;;;5.59;100.00
31761;BME280;18335;51.486;7.562;2023-02-20T04:39:48;100894.13;;;5.63;100.00
31761;BME280;18335;51.486;7.562;2023-02-20T04:42:17;100891.66;;;5.59;100.00
31761;BME280;18335;51.486;7.562;2023-02-20T04:44:44;100889.69;;;5.62;100.00
31761;BME280;18335;51.486;7.562;2023-02-20T04:47:13;100885.75;;;5.66;100.00
31761;BME280;18335;51.486;7.562;2023-02-20T04:49:40;100886.47;;;5.56;100.00
31761;BME280;18335;51.486;7.562;2023-02-20T04:52:09;100875.41;;;5.59;100.00
31761;BME280;18335;51.486;7.562;2023-02-20T04:54:37;100875.16;;;5.63;100.00
31761;BME280;18335;51.486;7.562;2023-02-20T04:57:05;100875.16;;;5.63;100.00
31761;BME280;18335;51.486;7.562;2023-02-20T04:59:33;100864.56;;;5.59;100.00
31761;BME280;18335;51.486;7.562;2023-02-20T05:02:00;100863.00;;;5.68;100.00
31761;BME280;18335;51.486;7.562;2023-02-20T05:04:27;100868.56;;;5.67;100.00
31761;BME280;18335;51.486;7.562;2023-02-20T05:06:54;100872.97;;;5.68;100.00
31761;BME280;18335;51.486;7.562;2023-02-20T05:09:22;100870.00;;;5.71;100.00
31761;BME280;18335;51.486;7.562;2023-02-20T05:11:49;100855.50;;;5.72;100.00
31761;BME280;18335;51.486;7.562;2023-02-20T05:14:16;100862.91;;;5.81;100.00
31761;BME280;18335;51.486;7.562;2023-02-20T05:16:45;100850.59;;;5.77;100.00
31761;BME280;18335;51.486;7.562;2023-02-20T05:19:12;100843.06;;;5.69;100.00
31761;BME280;18335;51.486;7.562;2023-02-20T05:21:41;100856.00;;;5.77;100.00
31761;BME280;18335;51.486;7.562;2023-02-20T05:24:25;100848.63;;;5.79;100.00
31761;BME280;18335;51.486;7.562;2023-02-20T05:26:53;100845.41;;;5.74;100.00
31761;BME280;18335;51.486;7.562;2023-02-20T05:29:20;100848.13;;;5.74;100.00
31761;BME280;18335;51.486;7.562;2023-02-20T05:31:48;100853.44;;;5.75;100.00
31761;BME280;18335;51.486;7.562;2023-02-20T05:34:15;100844.44;;;5.75;100.00
31761;BME280;18335;51.486;7.562;2023-02-20T05:36:42;100842.22;;;5.80;100.00
31761;BME280;18335;51.486;7.562;2023-02-20T05:39:08;100840.94;;;5.85;100.00
31761;BME280;18335;51.486;7.562;2023-02-20T05:41:35;100847.28;;;5.84;100.00
31761;BME280;18335;51.486;7.562;2023-02-20T05:44:02;100843.84;;;5.82;100.00
31761;BME280;18335;51.486;7.562;2023-02-20T05:46:29;100839.50;;;5.80;100.00
31761;BME280;18335;51.486;7.562;2023-02-20T05:48:57;100835.09;;;5.79;100.00
31761;BME280;18335;51.486;7.562;2023-02-20T05:51:26;100837.31;;;5.85;100.00
31761;BME280;18335;51.486;7.562;2023-02-20T05:53:54;100840.31;;;5.93;100.00
31761;BME280;18335;51.486;7.562;2023-02-20T05:56:21;100816.31;;;5.99;100.00
31761;BME280;18335;51.486;7.562;2023-02-20T05:58:48;100823.25;;;5.80;100.00
31761;BME280;18335;51.486;7.562;2023-02-20T06:01:17;100829.19;;;5.85;100.00
31761;BME280;18335;51.486;7.562;2023-02-20T06:03:44;100819.81;;;5.78;100.00
31761;BME280;18335;51.486;7.562;2023-02-20T06:06:12;100821.28;;;5.71;100.00
31761;BME280;18335;51.486;7.562;2023-02-20T06:08:39;100820.31;;;5.72;100.00
31761;BME280;18335;51.486;7.562;2023-02-20T06:11:06;100817.59;;;5.72;100.00
31761;BME280;18335;51.486;7.562;2023-02-20T06:13:33;100815.38;;;5.77;100.00
31761;BME280;18335;51.486;7.562;2023-02-20T06:16:00;100821.03;;;5.74;100.00
31761;BME280;18335;51.486;7.562;2023-02-20T06:18:27;100819.34;;;5.73;100.00
31761;BME280;18335;51.486;7.562;2023-02-20T06:20:53;100813.16;;;5.71;100.00
31761;BME280;18335;51.486;7.562;2023-02-20T06:23:22;100808.63;;;5.71;100.00
31761;BME280;18335;51.486;7.562;2023-02-20T06:25:49;100814.03;;;5.71;100.00
31761;BME280;18335;51.486;7.562;2023-02-20T06:28:16;100818.22;;;5.64;100.00
31761;BME280;18335;51.486;7.562;2023-02-20T06:30:43;100812.44;;;5.69;100.00
31761;BME280;18335;51.486;7.562;2023-02-20T06:33:10;100811.94;;;5.75;100.00
31761;BME280;18335;51.486;7.562;2023-02-20T06:35:37;100808.63;;;5.71;100.00
31761;BME280;18335;51.486;7.562;2023-02-20T06:38:03;100822.63;;;5.65;100.00
31761;BME280;18335;51.486;7.562;2023-02-20T06:40:31;100815.53;;;5.75;100.00
31761;BME280;18335;51.486;7.562;2023-02-20T06:42:59;100819.09;;;5.76;100.00
31761;BME280;18335;51.486;7.562;2023-02-20T06:45:25;100834.56;;;5.74;100.00
31761;BME280;18335;51.486;7.562;2023-02-20T06:47:52;100830.13;;;5.62;100.00
31761;BME280;18335;51.486;7.562;2023-02-20T06:50:19;100843.81;;;5.71;100.00
31761;BME280;18335;51.486;7.562;2023-02-20T06:52:45;100857.75;;;5.78;100.00
31761;BME280;18335;51.486;7.562;2023-02-20T06:55:12;100866.34;;;5.72;100.00
31761;BME280;18335;51.486;7.562;2023-02-20T06:57:41;100869.63;;;5.88;100.00
31761;BME280;18335;51.486;7.562;2023-02-20T07:00:08;100864.88;;;5.79;100.00
31761;BME280;18335;51.486;7.562;2023-02-20T07:02:35;100891.09;;;5.78;100.00
31761;BME280;18335;51.486;7.562;2023-02-20T07:05:02;100900.59;;;5.84;100.00
31761;BME280;18335;51.486;7.562;2023-02-20T07:07:29;100896.38;;;5.80;100.00
31761;BME280;18335;51.486;7.562;2023-02-20T07:09:56;100889.44;;;5.88;100.00
31761;BME280;18335;51.486;7.562;2023-02-20T07:12:28;100899.09;;;5.80;100.00
31761;BME280;18335;51.486;7.562;2023-02-20T07:14:56;100880.66;;;5.85;100.00
31761;BME280;18335;51.486;7.562;2023-02-20T07:17:23;100882.50;;;5.84;100.00
31761;BME280;18335;51.486;7.562;2023-02-20T07:19:50;100892.44;;;5.73;100.00
31761;BME280;18335;51.486;7.562;2023-02-20T07:22:17;100896.75;;;5.75;100.00
31761;BME280;18335;51.486;7.562;2023-02-20T07:24:49;100880.84;;;5.71;100.00
31761;BME280;18335;51.486;7.562;2023-02-20T07:27:15;100894.03;;;5.75;100.00
31761;BME280;18335;51.486;7.562;2023-02-20T07:29:44;100896.34;;;5.69;100.00
31761;BME280;18335;51.486;7.562;2023-02-20T07:32:12;100888.72;;;5.63;100.00
31761;BME280;18335;51.486;7.562;2023-02-20T07:34:39;100891.72;;;5.82;100.00
31761;BME280;18335;51.486;7.562;2023-02-20T07:37:06;100881.84;;;5.70;100.00
31761;BME280;18335;51.486;7.562;2023-02-20T07:39:33;100888.34;;;5.91;100.00
31761;BME280;18335;51.486;7.562;2023-02-20T07:42:00;100876.50;;;5.57;100.00
31761;BME280;18335;51.486;7.562;2023-02-20T07:44:48;100889.84;;;5.71;100.00
31761;BME280;18335;51.486;7.562;2023-02-20T07:47:16;100877.16;;;5.61;100.00
31761;BME280;18335;51.486;7.562;2023-02-20T07:49:43;100880.13;;;5.69;100.00
31761;BME280;18335;51.486;7.562;2023-02-20T07:52:10;100885.44;;;5.70;100.00
31761;BME280;18335;51.486;7.562;2023-02-20T07:54:36;100893.44;;;5.83;100.00
31761;BME280;18335;51.486;7.562;2023-02-20T07:57:03;100896.13;;;5.72;100.00
31761;BME280;18335;51.486;7.562;2023-02-20T07:59:30;100890.84;;;5.81;100.00
31761;BME280;18335;51.486;7.562;2023-02-20T08:01:57;100896.13;;;5.72;100.00
31761;BME280;18335;51.486;7.562;2023-02-20T08:04:25;100887.09;;;5.95;100.00
31761;BME280;18335;51.486;7.562;2023-02-20T08:06:52;100888.47;;;6.11;100.00
31761;BME280;18335;51.486;7.562;2023-02-20T08:09:19;100885.41;;;6.05;100.00
31761;BME280;18335;51.486;7.562;2023-02-20T08:11:46;100890.69;;;6.06;100.00
31761;BME280;18335;51.486;7.562;2023-02-20T08:14:13;100891.41;;;5.97;100.00
31761;BME280;18335;51.486;7.562;2023-02-20T08:16:40;100889.84;;;6.06;100.00
31761;BME280;18335;51.486;7.562;2023-02-20T08:19:06;100903.88;;;6.00;100.00
31761;BME280;18335;51.486;7.562;2023-02-20T08:21:35;100891.19;;;6.11;100.00
31761;BME280;18335;51.486;7.562;2023-02-20T08:24:01;100890.72;;;6.18;100.00
31761;BME280;18335;51.486;7.562;2023-02-20T08:26:28;100889.13;;;6.15;100.00
31761;BME280;18335;51.486;7.562;2023-02-20T08:28:55;100889.59;;;6.31;100.00
31761;BME280;18335;51.486;7.562;2023-02-20T08:31:21;100890.47;;;6.32;100.00
31761;BME280;18335;51.486;7.562;2023-02-20T08:33:48;100887.13;;;6.39;100.00
31761;BME280;18335;51.486;7.562;2023-02-20T08:36:15;100889.59;;;6.31;100.00
31761;BME280;18335;51.486;7.562;2023-02-20T08:38:44;100888.84;;;6.40;100.00
31761;BME280;18335;51.486;7.562;2023-02-20T08:41:12;100887.63;;;6.33;100.00
31761;BME280;18335;51.486;7.562;2023-02-20T08:43:39;100879.72;;;6.30;100.00
31761;BME280;18335;51.486;7.562;2023-02-20T08:46:08;100880.25;;;6.35;100.00
31761;BME280;18335;51.486;7.562;2023-02-20T08:48:35;100867.56;;;6.36;100.00
31761;BME280;18335;51.486;7.562;2023-02-20T08:51:02;100871.47;;;6.43;100.00
31761;BME280;18335;51.486;7.562;2023-02-20T08:53:29;100866.44;;;6.38;100.00
31761;BME280;18335;51.486;7.562;2023-02-20T08:55:57;100855.88;;;6.24;100.00
31761;BME280;18335;51.486;7.562;2023-02-20T08:58:25;100861.25;;;6.57;100.00
31761;BME280;18335;51.486;7.562;2023-02-20T09:00:52;100864.97;;;6.56;100.00
31761;BME280;18335;51.486;7.562;2023-02-20T09:03:19;100858.31;;;6.49;100.00
31761;BME280;18335;51.486;7.562;2023-02-20T09:05:45;100854.09;;;6.45;100.00
31761;BME280;18335;51.486;7.562;2023-02-20T09:08:12;100845.38;;;6.53;100.00
31761;BME280;18335;51.486;7.562;2023-02-20T09:10:39;100852.91;;;6.38;100.00
31761;BME280;18335;51.486;7.562;2023-02-20T09:13:07;100838.72;;;6.46;100.00
31761;BME280;18335;51.486;7.562;2023-02-20T09:15:34;100853.38;;;6.43;100.00
31761;BME280;18335;51.486;7.562;2023-02-20T09:18:04;100852.78;;;6.51;100.00
31761;BME280;18335;51.486;7.562;2023-02-20T09:20:34;100854.09;;;6.67;100.00
31761;BME280;18335;51.486;7.562;2023-02-20T09:23:01;100852.28;;;6.57;100.00
31761;BME280;18335;51.486;7.562;2023-02-20T09:25:27;100851.16;;;6.59;100.00
31761;BME280;18335;51.486;7.562;2023-02-20T09:27:54;100854.88;;;6.47;100.00
31761;BME280;18335;51.486;7.562;2023-02-20T09:30:23;100847.53;;;6.70;100.00
31761;BME280;18335;51.486;7.562;2023-02-20T09:32:50;100855.22;;;6.65;100.00
31761;BME280;18335;51.486;7.562;2023-02-20T09:35:18;100861.66;;;6.42;100.00
31761;BME280;18335;51.486;7.562;2023-02-20T09:37:45;100859.28;;;6.48;100.00
31761;BME280;18335;51.486;7.562;2023-02-20T09:40:13;100858.19;;;6.51;100.00
31761;BME280;18335;51.486;7.562;2023-02-20T09:42:48;100855.09;;;6.22;100.00
31761;BME280;18335;51.486;7.562;2023-02-20T09:45:19;100859.53;;;6.45;100.00
31761;BME280;18335;51.486;7.562;2023-02-20T09:48:04;100843.16;;;6.25;100.00
31761;BME280;18335;51.486;7.562;2023-02-20T09:50:36;100846.72;;;6.47;100.00
31761;BME280;18335;51.486;7.562;2023-02-20T09:53:13;100840.78;;;6.42;100.00
31761;BME280;18335;51.486;7.562;2023-02-20T09:55:42;100853.03;;;6.48;100.00
31761;BME280;18335;51.486;7.562;2023-02-20T09:58:19;100848.69;;;6.45;100.00
31761;BME280;18335;51.486;7.562;2023-02-20T10:00:47;100838.09;;;6.53;100.00
31761;BME280;18335;51.486;7.562;2023-02-20T10:03:23;100844.63;;;6.51;100.00
31761;BME280;18335;51.486;7.562;2023-02-20T10:05:50;100833.75;;;6.62;100.00
31761;BME280;18335;51.486;7.562;2023-02-20T10:08:19;100833.03;;;6.60;100.00
31761;BME280;18335;51.486;7.562;2023-02-20T10:10:48;100834.47;;;6.86;100.00
31761;BME280;18335;51.486;7.562;2023-02-20T10:13:29;100840.63;;;6.66;100.00
31761;BME280;18335;51.486;7.562;2023-02-20T10:16:03;100845.66;;;6.82;100.00
31761;BME280;18335;51.486;7.562;2023-02-20T10:18:40;100837.06;;;6.77;100.00
31761;BME280;18335;51.486;7.562;2023-02-20T10:21:17;100829.38;;;6.93;100.00
31761;BME280;18335;51.486;7.562;2023-02-20T10:23:50;100821.31;;;7.02;100.00
31761;BME280;18335;51.486;7.562;2023-02-20T10:26:20;100818.19;;;7.18;100.00
31761;BME280;18335;51.486;7.562;2023-02-20T10:28:48;100824.44;;;6.98;100.00
31761;BME280;18335;51.486;7.562;2023-02-20T10:31:28;100821.19;;;7.04;100.00
31761;BME280;18335;51.486;7.562;2023-02-20T10:34:06;100817.28;;;6.97;100.00
31761;BME280;18335;51.486;7.562;2023-02-20T10:36:37;100816.16;;;6.99;100.00
31761;BME280;18335;51.486;7.562;2023-02-20T10:39:08;100800.94;;;7.08;100.00
31761;BME280;18335;51.486;7.562;2023-02-20T10:41:41;100797.44;;;7.17;100.00
31761;BME280;18335;51.486;7.562;2023-02-20T10:44:14;100803.06;;;7.04;100.00
31761;BME280;18335;51.486;7.562;2023-02-20T10:46:50;100797.34;;;7.39;100.00
31761;BME280;18335;51.486;7.562;2023-02-20T10:49:26;100819.53;;;7.44;100.00
31761;BME280;18335;51.486;7.562;2023-02-20T10:51:59;100822.19;;;7.35;100.00
31761;BME280;18335;51.486;7.562;2023-02-20T10:54:31;100838.66;;;7.11;100.00
31761;BME280;18335;51.486;7.562;2023-02-20T10:57:02;100829.84;;;6.98;100.00
31761;BME280;18335;51.486;7.562;2023-02-20T10:59:37;100818.84;;;7.10;100.00
31761;BME280;18335;51.486;7.562;2023-02-20T11:02:14;100821.91;;;7.06;100.00
31761;BME280;18335;51.486;7.562;2023-02-20T11:04:48;100809.34;;;7.05;100.00
31761;BME280;18335;51.486;7.562;2023-02-20T11:07:16;100794.53;;;7.09;100.00
31761;BME280;18335;51.486;7.562;2023-02-20T11:09:44;100786.66;;;7.06;100.00
31761;BME280;18335;51.486;7.562;2023-02-20T11:12:23;100788.06;;;7.21;100.00
31761;BME280;18335;51.486;7.562;2023-02-20T11:14:52;100770.00;;;7.10;100.00
31761;BME280;18335;51.486;7.562;2023-02-20T11:17:23;100759.41;;;7.28;100.00
31761;BME280;18335;51.486;7.562;2023-02-20T11:19:55;100746.44;;;7.52;100.00
31761;BME280;18335;51.486;7.562;2023-02-20T11:22:40;100727.97;;;7.46;100.00
31761;BME280;18335;51.486;7.562;2023-02-20T11:25:18;100715.03;;;7.39;100.00
31761;BME280;18335;51.486;7.562;2023-02-20T11:27:47;100705.56;;;7.54;100.00
31761;BME280;18335;51.486;7.562;2023-02-20T11:30:27;100714.53;;;7.75;100.00
31761;BME280;18335;51.486;7.562;2023-02-20T11:33:01;100721.53;;;7.77;100.00
31761;BME280;18335;51.486;7.562;2023-02-20T11:35:33;100717.72;;;7.90;100.00
31761;BME280;18335;51.486;7.562;2023-02-20T11:38:24;100730.97;;;7.73;100.00
31761;BME280;18335;51.486;7.562;2023-02-20T11:41:10;100749.25;;;7.71;100.00
31761;BME280;18335;51.486;7.562;2023-02-20T11:43:40;100754.75;;;7.60;100.00
31761;BME280;18335;51.486;7.562;2023-02-20T11:46:13;100756.31;;;7.84;100.00
31761;BME280;18335;51.486;7.562;2023-02-20T11:48:59;100760.84;;;7.73;100.00
31761;BME280;18335;51.486;7.562;2023-02-20T11:51:36;100763.69;;;7.72;100.00
31761;BME280;18335;51.486;7.562;2023-02-20T11:54:13;100774.97;;;7.67;100.00
31761;BME280;18335;51.486;7.562;2023-02-20T11:57:00;100777.72;;;7.56;100.00
31761;BME280;18335;51.486;7.562;2023-02-20T11:59:32;100772.25;;;7.67;100.00
31761;BME280;18335;51.486;7.562;2023-02-20T12:02:21;100778.41;;;7.69;100.00
31761;BME280;18335;51.486;7.562;2023-02-20T12:05:07;100778.53;;;7.47;100.00
31761;BME280;18335;51.486;7.562;2023-02-20T12:07:38;100784.56;;;7.51;100.00
31761;BME280;18335;51.486;7.562;2023-02-20T12:10:27;100785.44;;;7.51;100.00
31761;BME280;18335;51.486;7.562;2023-02-20T12:12:57;100789.19;;;7.60;100.00
31761;BME280;18335;51.486;7.562;2023-02-20T12:15:27;100781.19;;;7.58;100.00
31761;BME280;18335;51.486;7.562;2023-02-20T12:18:08;100794.81;;;7.47;100.00
31761;BME280;18335;51.486;7.562;2023-02-20T12:20:44;100803.56;;;7.51;100.00
31761;BME280;18335;51.486;7.562;2023-02-20T12:23:22;100794.81;;;7.47;100.00
31761;BME280;18335;51.486;7.562;2023-02-20T12:26:01;100787.53;;;7.48;100.00
31761;BME280;18335;51.486;7.562;2023-02-20T12:28:38;100796.03;;;7.54;100.00
31761;BME280;18335;51.486;7.562;2023-02-20T12:31:19;100782.63;;;7.62;100.00
31761;BME280;18335;51.486;7.562;2023-02-20T12:33:56;100779.94;;;7.42;100.00
31761;BME280;18335;51.486;7.562;2023-02-20T12:36:30;100764.78;;;7.39;100.00
31761;BME280;18335;51.486;7.562;2023-02-20T12:39:05;100765.75;;;7.59;100.00
31761;BME280;18335;51.486;7.562;2023-02-20T12:41:45;100751.59;;;7.55;100.00
31761;BME280;18335;51.486;7.562;2023-02-20T12:44:26;100748.34;;;7.61;100.00
31761;BME280;18335;51.486;7.562;2023-02-20T12:46:59;100740.31;;;7.60;100.00
31761;BME280;18335;51.486;7.562;2023-02-20T12:49:48;100713.03;;;7.61;100.00
31761;BME280;18335;51.486;7.562;2023-02-20T12:52:32;100705.19;;;7.68;100.00
31761;BME280;18335;51.486;7.562;2023-02-20T12:55:17;100708.59;;;7.60;100.00
31761;BME280;18335;51.486;7.562;2023-02-20T12:57:50;100716.91;;;7.68;100.00
31761;BME280;18335;51.486;7.562;2023-02-20T13:00:29;100698.38;;;7.83;100.00
31761;BME280;18335;51.486;7.562;2023-02-20T13:03:02;100693.94;;;7.72;100.00
31761;BME280;18335;51.486;7.562;2023-02-20T13:05:33;100705.88;;;7.91;100.00
31761;BME280;18335;51.486;7.562;2023-02-20T13:08:06;100700.59;;;7.99;100.00
31761;BME280;18335;51.486;7.562;2023-02-20T13:10:47;100682.09;;;7.83;100.00
31761;BME280;18335;51.486;7.562;2023-02-20T13:13:15;100676.09;;;7.89;100.00